Lebanon, OR

1:39 PM PDT on October 01, 2014 (GMT -0700)
McNary | Change Station
CLOSE
Current Station
Airport
Location: Salem,
Elevation: 200 ft
Nearby Weather Stations
Active Advisory: Special Statement

Elev 200 ft 44.91 °N, 123.00 °W | Updated -1011 second ago

Partly Cloudy
Partly Cloudy
68 °F
Feels Like 68 °F
N
7
Wind Variable Wind from SW

Today
High -- | Low -- °F
--% Chance of Precip.
Yesterday
High -- | Low -- °F
Precip. -- in
7:09 AM 6:52 PM
Waxing Crescent, 51% visible
Pressure 30.14 in
Visibility 10.0 miles
Clouds Scattered Clouds 3400 ft
Dew Point 49 °F
Humidity 50%
Rainfall 0.03 in
Snow Depth 0 in , 0 in , 0 in
UV 4 out of 12
Pollen 1.10 out of 12
Ozone Good
PM2.5 Good
Flu Activity Not available.
METAR KSLE 302056Z 23006KT 10SM SCT034 20/09 A3014 RMK AO2 SLP207 T02000094 58005

More Conditions Fewer Conditions

Pressure 30.14 in
Visibility 10.0 miles
Clouds Scattered Clouds 3400 ft
Dew Point 49 °F
Humidity 50%
Rainfall 0.03 in
Snow Depth 0 in , 0 in , 0 in
UV 4 out of 12
Pollen 1.10 out of 12
Ozone Good
PM2.5 Good
Flu Activity Not available.
METAR KSLE 302056Z 23006KT 10SM SCT034 20/09 A3014 RMK AO2 SLP207 T02000094 58005

More Conditions Fewer Conditions

10-Day Weather Forecast

Almanac

Astronomy

Oct. 01, 2014 Rise Set
Actual Time 7:09 AM PDT 6:52 PM PDT
Civil Twilight 6:40 AM PDT 7:21 PM PDT
Nautical Twilight 6:06 AM PDT 7:54 PM PDT
Astronomical Twilight 5:32 AM PDT 8:28 PM PDT
Moon 2:25 PM PDT No Moon Set
Length of Visible Light 12h 40m
Length of Day
11h 42m
Tomorrow will be 3m 2s shorter.
Waxing Crescent, 51% of the Moon is Illuminated
Today
Waxing Crescent
Oct 8
Full
Oct 15
Last Quarter
Oct 23
New
Oct 30
First Quarter

Today's Extremes

State Highs State Lows

Community

WunderPhotos

Upload Photos

1,758,037 photos uploaded!

WunderBlogs® & News

By Dr. Jeff Masters
Director of Meteorology, Weather Underground
By Kari Strenfel
Meteorologist, Weather Underground
By Christopher C. Burt
Weather Historian, Weather Underground
October 1, 2014
October 1, 2014
October 1, 2014

Nearby

Air Quality

  Air Quality AQ Index Pollutant
Yesterday Good
OZONE
Yesterday Good
PM2.5
Current Good
PM2.5
Current Good
OZONE
Wednesday Good
PM2.5
Wednesday Good
OZONE
Thursday Good
PM2.5
Thursday Good
OZONE

Snow Depth

Station Depth Elevation
Salt Creek Falls 0 in 4000 ft
Mt. Howard 0 in 7910 ft
Tipton 0 in 5150 ft
Fish Lake 0 in 4665 ft
North Fork 0 in 3120 ft

Earthquake Activity

City Distance Mag. Time & Date
No recent earthquake activity has been reported nearby.
Minimum magnitude displayed is 2.5.

Coastal Water Temperatures

Place Temperature
No Stations Reporting

Nearby Weather Stations